Airfield :
LOGIN :

Register | Disclaimer

   EN    FR    IT 

 










Legend :    VFR   Marginal VFR   IFR   Intensive IFR   Very Intensive IFR
Visi :
Ceiling :
>= 8 km
>= 3000ft
5 to 8 km
1000 to 3000 ft
1500m to 5 km
500 to 1000 ft
800 to 1500m
200 to 500 ft
< 800m
< 200 ft
Symbols :   Thunderstorms  Fog  Heavy snow  Heavy precipitations  Wind > 20 kt
SIGMETs :     Misc.  Thunderstorms  Icing  Turbulence  Mountain Waves  Volcanic Ashes






- Airport Elevation : 939 ft


LKKB - Kbely Air Base

CURRENT METAR :
  • 232000Z 33004KT 300V010 9999 SCT037 18/15 Q1018 NOSIG

EXPIRED METARs :
  • 231900Z 34004KT 310V010 9999 SCT020 20/16 Q1018 NOSIG
  • 231800Z 31006KT 9999 FEW017 BKN020 20/16 Q1019 NOSIG
  • 231700Z 30007KT 270V340 9999 FEW019 SCT050 21/16 Q1019 NOSIG

TAF TAF LKKB
Valid from the 23 at 18:00 until the 24 at 18:00 UTC


231700Z 2318/2418 29008KT CAVOK
BECMG 2322/2400 BKN030
TEMPO 2322/2412 35016KT 6000 SHRA SCT012TCU BKN020
PROB30
TEMPO 2323/2404 35016G30KT 3000 TSRA BKN010CB
BECMG 2413/2415 CAVOK



MET'MAP, your aeronautical weather chart ! - Copyright ORBIFLY December 2007 - Disclaimer

ORBIFLY MET'MAP TEAM :

Programming & Development : Alexandra Zaïnal
Concept & original design : Baudouin d'Aumeries
Assistance for programming : Marc-Olivier Méhu
Technical & hardware support : Manuel Goepfert

Contact : metmap@orbifly.com




SOURCES & CREDITS :

   NOAA